Yellow Mule RAWS (NWS)

Elevation
9200ft
Aggregated by Synoptic Data
Date/Time Wind Direction Wind Speed knots Wind Gust knots RH % Accumulated Precip Inches Air Temp Fahrenheit
2024-07-20 09:04 3 8 44 7.73 60
2024-07-20 08:04 9 11 48 7.73 57
2024-07-20 07:04 4 6 47 7.73 57
2024-07-20 06:04 3 5 43 7.73 57
2024-07-20 05:04 3 7 44 7.73 58
2024-07-20 04:04 3 4 43 7.73 57
2024-07-20 03:04 2 3 41 7.73 59
2024-07-20 02:04 3 6 42 7.73 57
2024-07-20 01:04 3 4 44 7.73 56
2024-07-20 00:04 3 5 37 7.73 58
2024-07-19 23:04 4 7 36 7.73 59
2024-07-19 22:04 5 10 37 7.73 60
2024-07-19 21:04 6 11 38 7.73 60
2024-07-19 20:04 6 12 34 7.73 64
2024-07-19 19:04 8 15 32 7.73 67
2024-07-19 18:04 6 15 34 7.73 70
2024-07-19 17:04 9 17 31 7.73 66
2024-07-19 16:04 9 16 29 7.73 69
2024-07-19 15:04 9 18 32 7.73 69
2024-07-19 14:04 8 16 33 7.73 68
2024-07-19 13:04 8 16 33 7.73 68
2024-07-19 12:04 4 10 39 7.73 65
2024-07-19 11:04 6 14 39 7.73 70
2024-07-19 10:04 5 10 41 7.73 69
2024-07-19 09:04 3 9 48 7.73 65
2024-07-19 08:04 3 6 48 7.73 62
2024-07-19 07:04 3 7 46 7.73 59
2024-07-19 06:04 6 8 50 7.73 55
2024-07-19 05:04 5 8 45 7.73 57
2024-07-19 04:04 7 10 43 7.73 58
2024-07-19 03:04 7 9 41 7.73 58
2024-07-19 02:04 4 7 45 7.73 57
2024-07-19 01:04 6 8 47 7.73 59
2024-07-19 00:04 5 11 52 7.73 58
2024-07-18 23:04 6 8 52 7.73 59
2024-07-18 22:04 1 6 45 7.73 60
2024-07-18 21:04 5 8 49 7.73 60
2024-07-18 20:04 5 11 52 7.73 62
2024-07-18 19:04 10 21 45 7.73 63
2024-07-18 18:04 4 7 45 7.73 65
2024-07-18 17:04 1 8 43 7.73 67
2024-07-18 16:04 SE 5 23 49 7.73 64
2024-07-18 15:04 SSW 15 24 43 7.73 60
2024-07-18 14:04 6 15 30 7.72 72
2024-07-18 13:04 5 12 31 7.72 69
2024-07-18 12:04 3 10 43 7.72 67
2024-07-18 11:04 3 10 37 7.72 73
2024-07-18 10:04 5 11 34 7.72 70
2024-07-18 09:04 4 9 43 7.72 62